createdAt,value
2024-03-29T00:01:45.117Z,83.9
2024-03-29T00:04:32.465Z,84.1
2024-03-29T00:07:20.070Z,84.1
2024-03-29T00:10:07.561Z,84.2
2024-03-29T00:12:55.279Z,84.3
2024-03-29T00:15:42.841Z,84.3
2024-03-29T00:18:32.270Z,84.8
2024-03-29T00:21:19.799Z,84.9
2024-03-29T00:24:07.120Z,85
2024-03-29T00:26:54.544Z,85.6
2024-03-29T00:29:41.838Z,85.3
2024-03-29T00:32:31.775Z,85.6
2024-03-29T00:35:19.115Z,85.6
2024-03-29T00:38:08.231Z,85.8
2024-03-29T00:40:55.626Z,86.1
2024-03-29T00:43:43.008Z,86.3
2024-03-29T00:46:30.231Z,86.9
2024-03-29T00:49:17.744Z,86.7
2024-03-29T00:52:05.097Z,87
2024-03-29T00:54:52.835Z,88
2024-03-29T00:57:40.158Z,87.9
2024-03-29T01:00:27.548Z,88.1
2024-03-29T01:03:14.908Z,88.3
2024-03-29T01:06:02.535Z,88.3
2024-03-29T01:08:50.279Z,88.8
2024-03-29T01:11:37.623Z,88.8
2024-03-29T01:14:25.656Z,89.5
2024-03-29T01:17:13.352Z,89.2
2024-03-29T01:20:00.724Z,89.5
2024-03-29T01:22:49.194Z,89.4
2024-03-29T01:25:36.522Z,89.7
2024-03-29T01:28:23.766Z,89.4
2024-03-29T01:31:11.030Z,89.9
2024-03-29T01:33:58.350Z,89.9
2024-03-29T01:36:48.381Z,89.8
2024-03-29T01:39:36.273Z,89.5
2024-03-29T01:42:23.598Z,89.7
2024-03-29T01:45:12.074Z,89.5
2024-03-29T01:47:59.431Z,88.5
2024-03-29T01:50:46.918Z,88.1
2024-03-29T01:53:34.968Z,87.5
2024-03-29T01:56:23.204Z,88.7
2024-03-29T01:59:11.525Z,89.7
2024-03-29T02:02:01.947Z,89.3
2024-03-29T02:04:49.471Z,91
2024-03-29T02:07:37.563Z,92.6
2024-03-29T02:10:25.042Z,94
2024-03-29T02:13:12.490Z,99.4
2024-03-29T02:16:00.153Z,100
2024-03-29T02:18:47.553Z,100
2024-03-29T02:21:35.122Z,100
2024-03-29T02:24:26.578Z,100
2024-03-29T02:27:13.984Z,100
2024-03-29T02:30:02.441Z,100
2024-03-29T02:32:52.169Z,100
2024-03-29T02:35:40.449Z,100
2024-03-29T02:38:27.957Z,100
2024-03-29T02:41:15.497Z,100
2024-03-29T02:44:02.760Z,100
2024-03-29T02:46:50.180Z,100
2024-03-29T02:49:37.737Z,100
2024-03-29T02:52:25.196Z,100
2024-03-29T02:55:12.630Z,100
2024-03-29T02:58:00.366Z,100
2024-03-29T03:00:47.701Z,100
2024-03-29T03:03:35.185Z,100
2024-03-29T03:06:23.613Z,100
2024-03-29T03:09:10.824Z,100
2024-03-29T03:12:29.804Z,100
2024-03-29T03:15:17.451Z,100
2024-03-29T03:18:04.888Z,100
2024-03-29T03:20:52.431Z,100
2024-03-29T03:23:41.511Z,100
2024-03-29T03:26:28.766Z,100
2024-03-29T03:29:16.099Z,100
2024-03-29T03:32:03.303Z,100
2024-03-29T03:34:51.979Z,100
2024-03-29T03:37:39.274Z,100
2024-03-29T03:40:26.567Z,100
2024-03-29T03:43:13.848Z,100
2024-03-29T03:46:01.907Z,100
2024-03-29T03:48:49.600Z,100
2024-03-29T03:51:36.884Z,100
2024-03-29T03:54:24.410Z,100
2024-03-29T03:57:11.684Z,100
2024-03-29T03:59:59.020Z,100
2024-03-29T04:02:46.331Z,100
2024-03-29T04:05:34.806Z,100
2024-03-29T04:08:23.668Z,100
2024-03-29T04:11:11.018Z,100
2024-03-29T04:13:58.388Z,100
2024-03-29T04:16:45.985Z,100
2024-03-29T04:19:33.671Z,100
2024-03-29T04:22:22.057Z,100
2024-03-29T04:25:09.368Z,100
2024-03-29T04:27:56.988Z,100
2024-03-29T04:30:44.976Z,100
2024-03-29T04:33:37.624Z,100
2024-03-29T04:36:25.041Z,100
2024-03-29T04:39:12.393Z,100
2024-03-29T04:41:59.823Z,100
2024-03-29T04:44:47.237Z,100
2024-03-29T04:47:34.716Z,100
2024-03-29T04:50:23.003Z,100
2024-03-29T04:53:10.496Z,100
2024-03-29T04:55:57.964Z,100
2024-03-29T04:58:45.425Z,100
2024-03-29T05:01:32.708Z,100
2024-03-29T05:04:21.033Z,100
2024-03-29T05:07:10.947Z,100
2024-03-29T05:09:58.302Z,100
2024-03-29T05:12:45.847Z,100
2024-03-29T05:15:33.153Z,100
2024-03-29T05:18:20.654Z,100
2024-03-29T05:21:08.350Z,100
2024-03-29T05:23:55.791Z,100
2024-03-29T05:26:43.103Z,100
2024-03-29T05:29:30.778Z,100
2024-03-29T05:32:18.150Z,100
2024-03-29T05:35:05.456Z,100
2024-03-29T05:37:54.471Z,100
2024-03-29T05:40:41.892Z,100
2024-03-29T05:43:29.212Z,100
2024-03-29T05:46:16.746Z,100
2024-03-29T05:49:04.334Z,100
2024-03-29T05:51:51.688Z,100
2024-03-29T05:54:39.024Z,100
2024-03-29T05:57:26.497Z,100
2024-03-29T06:00:16.548Z,100
2024-03-29T06:03:04.045Z,100
2024-03-29T06:05:52.014Z,100
2024-03-29T06:08:39.394Z,100
2024-03-29T06:11:26.682Z,100
2024-03-29T06:14:14.068Z,100
2024-03-29T06:17:33.251Z,100
2024-03-29T06:20:22.733Z,100
2024-03-29T06:23:10.244Z,100
2024-03-29T06:25:57.638Z,100
2024-03-29T06:28:45.210Z,99.6
2024-03-29T06:31:32.527Z,98.2
2024-03-29T06:34:19.867Z,98.5
2024-03-29T06:37:07.456Z,98.2
2024-03-29T06:39:54.757Z,97.4
2024-03-29T06:42:42.187Z,97.4
2024-03-29T06:45:29.601Z,95.3
2024-03-29T06:48:17.016Z,95.1
2024-03-29T06:51:04.631Z,94.4
2024-03-29T06:53:52.131Z,95
2024-03-29T06:56:39.571Z,93.3
2024-03-29T06:59:26.904Z,93.4
2024-03-29T07:02:14.828Z,93.7
2024-03-29T07:05:02.671Z,90.6
2024-03-29T07:07:53.189Z,89
2024-03-29T07:10:41.704Z,87.3
2024-03-29T07:13:29.078Z,84.5
2024-03-29T07:16:17.050Z,86.4
2024-03-29T07:19:04.328Z,85.9
2024-03-29T07:21:51.701Z,84.4
2024-03-29T07:24:39.648Z,83.7
2024-03-29T07:27:27.029Z,83.2
2024-03-29T07:30:18.378Z,82.9
2024-03-29T07:33:06.284Z,81.4
2024-03-29T07:35:55.186Z,80
2024-03-29T07:38:43.264Z,78
2024-03-29T07:41:30.889Z,79.2
2024-03-29T07:44:18.244Z,79.8
2024-03-29T07:47:05.507Z,79.8
2024-03-29T07:49:52.834Z,77.7
2024-03-29T07:52:40.261Z,77.9
2024-03-29T07:55:27.535Z,76.3
2024-03-29T07:58:14.709Z,76.4
2024-03-29T08:01:02.705Z,74.5
2024-03-29T08:03:50.341Z,75.9
2024-03-29T08:06:39.210Z,77.5
2024-03-29T08:09:26.967Z,76.8
2024-03-29T08:12:14.304Z,74.7
2024-03-29T08:15:01.739Z,72.8
2024-03-29T08:17:49.484Z,73.4
2024-03-29T08:20:36.837Z,73.8
2024-03-29T08:23:24.194Z,72.2
2024-03-29T08:26:11.682Z,71.2
2024-03-29T08:28:59.078Z,68.1
2024-03-29T08:31:46.755Z,67.8
2024-03-29T08:34:34.494Z,68.6
2024-03-29T08:37:22.990Z,68.4
2024-03-29T08:40:10.354Z,67
2024-03-29T08:42:58.016Z,68.6
2024-03-29T08:45:45.693Z,65.4
2024-03-29T08:48:33.717Z,64.2
2024-03-29T08:51:23.270Z,64.4
2024-03-29T08:54:10.942Z,65.7
2024-03-29T08:56:58.536Z,64.6
2024-03-29T08:59:47.008Z,64
2024-03-29T09:02:34.376Z,64.3
2024-03-29T09:05:22.575Z,62.8
2024-03-29T09:08:10.786Z,61.7
2024-03-29T09:10:58.125Z,59.7
2024-03-29T09:13:46.776Z,61
2024-03-29T09:16:34.194Z,58.3
2024-03-29T09:19:23.129Z,57.2
2024-03-29T09:22:10.693Z,58.1
2024-03-29T09:24:58.061Z,58.2
2024-03-29T09:27:45.864Z,58.4
2024-03-29T09:30:34.294Z,58.4
2024-03-29T09:33:22.585Z,58.4
2024-03-29T09:36:10.326Z,56.5
2024-03-29T09:38:57.726Z,56.1
2024-03-29T09:41:45.094Z,53.2
2024-03-29T09:44:32.573Z,52.5
2024-03-29T09:47:21.944Z,51.6
2024-03-29T09:50:11.693Z,52.4
2024-03-29T09:52:59.370Z,50.9
2024-03-29T09:55:47.255Z,49.1
2024-03-29T09:58:35.519Z,47.9
2024-03-29T10:01:24.116Z,48.4
2024-03-29T10:04:11.847Z,47.3
2024-03-29T10:07:01.083Z,49.1
2024-03-29T10:09:50.134Z,47.6
2024-03-29T10:12:40.440Z,48.4
2024-03-29T10:15:28.985Z,47.8
2024-03-29T10:18:25.367Z,48.2
2024-03-29T10:21:16.046Z,47.2
2024-03-29T10:24:03.515Z,45.2
2024-03-29T10:26:58.501Z,46.6
2024-03-29T10:29:48.444Z,45.6
2024-03-29T10:32:38.647Z,45.8
2024-03-29T10:35:26.309Z,44.9
2024-03-29T10:38:13.844Z,45.4
2024-03-29T10:41:01.271Z,45.5
2024-03-29T10:43:51.785Z,46.4
2024-03-29T10:46:42.177Z,47.8
2024-03-29T10:49:33.596Z,46.3
2024-03-29T10:52:22.367Z,45.6
2024-03-29T10:55:11.486Z,44.4
2024-03-29T10:57:59.527Z,44.6
2024-03-29T11:00:47.857Z,43.8
2024-03-29T11:03:39.409Z,44.8
2024-03-29T11:06:34.420Z,44.5
2024-03-29T11:09:26.294Z,40.1
2024-03-29T11:12:17.396Z,40.9
2024-03-29T11:15:07.613Z,39.9
2024-03-29T11:18:02.459Z,37.1
2024-03-29T11:20:50.917Z,37.2
2024-03-29T11:23:39.420Z,37.6
2024-03-29T11:26:26.857Z,37.7
2024-03-29T11:29:14.951Z,38.1
2024-03-29T11:32:05.956Z,38.2
2024-03-29T11:34:53.421Z,40.8
2024-03-29T11:37:41.781Z,36.3
2024-03-29T11:40:29.253Z,36
2024-03-29T11:43:17.051Z,37.9
2024-03-29T11:46:04.466Z,36.9
2024-03-29T11:48:55.808Z,38.5
2024-03-29T11:51:43.423Z,37.3
2024-03-29T11:54:33.504Z,37.5
2024-03-29T11:57:25.206Z,39.3
2024-03-29T12:00:12.715Z,37.8
2024-03-29T12:03:00.456Z,37.2
2024-03-29T12:05:49.114Z,37.8
2024-03-29T12:08:40.062Z,37.3
2024-03-29T12:11:28.668Z,37.7
2024-03-29T12:14:17.966Z,38.6
2024-03-29T12:17:08.145Z,39.2
2024-03-29T12:19:56.806Z,38.8
2024-03-29T12:22:49.783Z,38.1
2024-03-29T12:25:37.696Z,39.2
2024-03-29T12:28:25.757Z,40.1
2024-03-29T12:31:14.954Z,39.1
2024-03-29T12:34:04.837Z,40
2024-03-29T12:36:53.722Z,39.9
2024-03-29T12:39:43.714Z,38
2024-03-29T12:42:31.988Z,37.3
2024-03-29T12:45:19.662Z,38
2024-03-29T12:48:08.710Z,35.7
2024-03-29T12:50:58.076Z,36.6
2024-03-29T12:53:46.584Z,35.6
2024-03-29T12:56:34.630Z,35.5
2024-03-29T12:59:26.340Z,34.3
2024-03-29T13:02:15.083Z,34.9
2024-03-29T13:05:02.561Z,35.3
2024-03-29T13:07:51.101Z,35.1
2024-03-29T13:10:40.142Z,34.3
2024-03-29T13:13:28.476Z,35.5
2024-03-29T13:16:16.146Z,34.2
2024-03-29T13:19:03.759Z,35.8
2024-03-29T13:21:51.407Z,36.3
2024-03-29T13:24:39.159Z,35
2024-03-29T13:27:26.721Z,35.4
2024-03-29T13:30:14.375Z,33.7
2024-03-29T13:33:01.863Z,33.8
2024-03-29T13:35:50.178Z,34.4
2024-03-29T13:38:51.880Z,33.9
2024-03-29T13:41:46.423Z,34.8
2024-03-29T13:44:34.159Z,35.2
2024-03-29T13:47:22.417Z,35.6
2024-03-29T13:50:10.211Z,37
2024-03-29T13:53:00.818Z,36
2024-03-29T13:55:49.764Z,35.7
2024-03-29T13:58:37.703Z,36.6
2024-03-29T14:01:25.225Z,37.6
2024-03-29T14:04:13.549Z,37.7
2024-03-29T14:07:01.246Z,37.5
2024-03-29T14:09:52.616Z,37.6
2024-03-29T14:12:40.218Z,37.3
2024-03-29T14:15:27.784Z,37.2
2024-03-29T14:18:15.378Z,37.4
2024-03-29T14:21:02.849Z,36.7
2024-03-29T14:23:50.932Z,36.7
2024-03-29T14:26:40.170Z,37.2
2024-03-29T14:29:28.805Z,35.6
2024-03-29T14:32:16.394Z,36.7
2024-03-29T14:35:04.012Z,34.8
2024-03-29T14:37:52.905Z,34.5
2024-03-29T14:40:41.596Z,34.2
2024-03-29T14:43:29.142Z,34.4
2024-03-29T14:46:17.931Z,32.8
2024-03-29T14:49:06.568Z,33.3
2024-03-29T14:51:56.817Z,33.8
2024-03-29T14:54:44.295Z,33.7
2024-03-29T14:57:32.070Z,34
2024-03-29T15:00:20.504Z,34.9
2024-03-29T15:03:10.136Z,34.8
2024-03-29T15:05:57.830Z,34.4
2024-03-29T15:08:45.455Z,35
2024-03-29T15:11:32.922Z,35.2
2024-03-29T15:14:21.014Z,34.5
2024-03-29T15:17:08.565Z,34.9
2024-03-29T15:19:56.096Z,35.2
2024-03-29T15:22:43.781Z,35.4
2024-03-29T15:25:33.434Z,34.8
2024-03-29T15:28:21.284Z,35.5
2024-03-29T15:31:41.916Z,35.1
2024-03-29T15:34:29.431Z,35.4
2024-03-29T15:37:17.089Z,35.8
2024-03-29T15:40:05.557Z,36.3
2024-03-29T15:42:56.004Z,36.9
2024-03-29T15:45:43.279Z,35.9
2024-03-29T15:48:30.737Z,36.3
2024-03-29T15:51:18.374Z,37.1
2024-03-29T15:54:05.822Z,37.1
2024-03-29T15:56:57.027Z,37.7
2024-03-29T15:59:45.745Z,37.2
2024-03-29T16:02:33.542Z,36.9
2024-03-29T16:05:32.798Z,37.5
2024-03-29T16:08:20.126Z,36.7
2024-03-29T16:11:09.542Z,37.7
2024-03-29T16:13:57.067Z,37.9
2024-03-29T16:16:44.485Z,38.3
2024-03-29T16:19:31.887Z,38.6
2024-03-29T16:22:19.311Z,39.2
2024-03-29T16:25:07.266Z,39.4
2024-03-29T16:27:54.837Z,38.8
2024-03-29T16:30:42.216Z,37.8
2024-03-29T16:33:30.703Z,38.2
2024-03-29T16:36:19.964Z,37.9
2024-03-29T16:39:07.460Z,38.3
2024-03-29T16:41:54.953Z,39
2024-03-29T16:44:44.161Z,39.2
2024-03-29T16:47:31.532Z,39.5
2024-03-29T16:50:19.763Z,39.7
2024-03-29T16:53:07.090Z,39.7
2024-03-29T16:55:54.706Z,40.5
2024-03-29T16:58:42.062Z,41.2
2024-03-29T17:01:29.487Z,40.7
2024-03-29T17:04:16.886Z,41.2
2024-03-29T17:07:04.311Z,41.6
2024-03-29T17:09:51.848Z,41.8
2024-03-29T17:12:39.597Z,42.4
2024-03-29T17:15:27.327Z,42.4
2024-03-29T17:18:14.787Z,42.8
2024-03-29T17:21:02.154Z,43
2024-03-29T17:23:49.881Z,43.3
2024-03-29T17:26:38.551Z,43.7
2024-03-29T17:29:26.112Z,43.8
2024-03-29T17:32:14.686Z,44.4
2024-03-29T17:35:02.119Z,44.5
2024-03-29T17:37:50.745Z,44.9
2024-03-29T17:40:38.022Z,44.7
2024-03-29T17:43:25.682Z,45.1
2024-03-29T17:46:13.166Z,45.4
2024-03-29T17:49:00.660Z,45.7
2024-03-29T17:51:48.753Z,45.6
2024-03-29T17:54:36.362Z,45.7
2024-03-29T17:57:24.012Z,45.8
2024-03-29T18:00:11.679Z,46
2024-03-29T18:03:02.567Z,46.6
2024-03-29T18:05:51.254Z,46.8
2024-03-29T18:08:39.138Z,46.8
2024-03-29T18:11:27.148Z,47
2024-03-29T18:14:14.673Z,47.3
2024-03-29T18:17:02.551Z,47.4
2024-03-29T18:19:50.251Z,47.7
2024-03-29T18:22:37.649Z,47.8
2024-03-29T18:25:24.947Z,48.2
2024-03-29T18:28:12.502Z,48.3
2024-03-29T18:31:00.052Z,48.5
2024-03-29T18:33:52.352Z,48.5
2024-03-29T18:36:39.755Z,48.9
2024-03-29T18:39:27.256Z,48.8
2024-03-29T18:42:14.571Z,49.3
2024-03-29T18:45:02.121Z,49.2
2024-03-29T18:47:50.568Z,49.8
2024-03-29T18:50:39.057Z,49.7
2024-03-29T18:53:26.536Z,50.1
2024-03-29T18:56:13.925Z,50.1
2024-03-29T18:59:02.731Z,50.4
2024-03-29T19:01:50.197Z,50.7
2024-03-29T19:04:37.801Z,50.8
2024-03-29T19:07:27.048Z,51.1
2024-03-29T19:10:14.571Z,51.1
2024-03-29T19:13:02.182Z,51.5
2024-03-29T19:15:50.215Z,51.9
2024-03-29T19:18:37.604Z,51.9
2024-03-29T19:21:25.388Z,52
2024-03-29T19:24:12.760Z,52.4
2024-03-29T19:27:00.308Z,52.5
2024-03-29T19:29:48.201Z,52.8
2024-03-29T19:32:36.679Z,53.1
2024-03-29T19:35:24.504Z,53.3
2024-03-29T19:38:13.161Z,53.5
2024-03-29T19:41:02.392Z,53.8
2024-03-29T19:43:50.258Z,54.3
2024-03-29T19:46:40.188Z,54.7
2024-03-29T19:49:27.515Z,55.2
2024-03-29T19:52:14.863Z,55.5
2024-03-29T19:55:02.572Z,55.9
2024-03-29T19:57:50.805Z,56.6
2024-03-29T20:00:38.279Z,56.9
2024-03-29T20:03:25.840Z,57
2024-03-29T20:06:13.484Z,57.3
2024-03-29T20:09:00.837Z,58
2024-03-29T20:11:48.895Z,58.3
2024-03-29T20:14:36.706Z,58.5
2024-03-29T20:17:24.488Z,59
2024-03-29T20:20:11.903Z,59.3
2024-03-29T20:22:59.571Z,59.5
2024-03-29T20:25:49.007Z,59.8
2024-03-29T20:28:37.055Z,60.2
2024-03-29T20:31:24.900Z,60.5
2024-03-29T20:34:12.207Z,60.9
2024-03-29T20:36:59.860Z,61.3
2024-03-29T20:39:48.133Z,61.5
2024-03-29T20:42:35.563Z,61.9
2024-03-29T20:45:24.039Z,62.2
2024-03-29T20:48:11.682Z,62.7
2024-03-29T20:50:59.461Z,63.1
2024-03-29T20:53:47.248Z,63.9
2024-03-29T20:56:35.141Z,64.1
2024-03-29T20:59:24.674Z,64.2
2024-03-29T21:02:16.992Z,64.6
2024-03-29T21:05:36.748Z,64.9
2024-03-29T21:08:25.949Z,65.3
2024-03-29T21:11:13.269Z,65.2
2024-03-29T21:14:00.798Z,65.2
2024-03-29T21:16:48.179Z,65.4
2024-03-29T21:19:36.480Z,65.4
2024-03-29T21:22:24.508Z,65.7
2024-03-29T21:25:12.178Z,65.9
2024-03-29T21:28:00.184Z,66
2024-03-29T21:30:49.282Z,66
2024-03-29T21:33:38.134Z,66.3
2024-03-29T21:36:26.184Z,66.7
2024-03-29T21:39:13.530Z,66.9
2024-03-29T21:42:01.306Z,67.1
2024-03-29T21:44:52.048Z,67.6
2024-03-29T21:47:39.879Z,67.8
2024-03-29T21:50:27.557Z,68.5
2024-03-29T21:53:14.977Z,68.6
2024-03-29T21:56:02.495Z,68.8
2024-03-29T21:58:55.228Z,69
2024-03-29T22:01:43.093Z,68.9
2024-03-29T22:04:30.618Z,69.1
2024-03-29T22:07:19.283Z,69.2
2024-03-29T22:10:06.754Z,69.2
2024-03-29T22:12:54.742Z,69.6
2024-03-29T22:15:42.084Z,69.5
2024-03-29T22:18:29.667Z,69.7
2024-03-29T22:21:17.468Z,69.9
2024-03-29T22:24:04.805Z,70.5
2024-03-29T22:26:52.523Z,70.8
2024-03-29T22:29:39.915Z,71.1
2024-03-29T22:32:27.626Z,71.1
2024-03-29T22:35:15.060Z,71.8
2024-03-29T22:38:07.857Z,72.5
2024-03-29T22:40:55.244Z,73.2
2024-03-29T22:43:42.828Z,73.8
2024-03-29T22:46:30.229Z,74.2
2024-03-29T22:49:17.604Z,74.8
2024-03-29T22:52:05.475Z,75.4
2024-03-29T22:54:53.489Z,75.6
2024-03-29T22:57:41.021Z,76.1
2024-03-29T23:00:28.707Z,76.2
2024-03-29T23:03:16.619Z,76.4
2024-03-29T23:06:04.175Z,76.7
2024-03-29T23:08:51.739Z,77.2
2024-03-29T23:11:39.135Z,77.3
2024-03-29T23:14:27.041Z,77.6
2024-03-29T23:17:14.421Z,78.1
2024-03-29T23:20:01.670Z,78.7
2024-03-29T23:22:50.961Z,79.2
2024-03-29T23:25:43.187Z,79.6
2024-03-29T23:28:30.666Z,79.7
2024-03-29T23:31:18.648Z,79.9
2024-03-29T23:34:06.199Z,80
2024-03-29T23:36:53.511Z,80.8
2024-03-29T23:39:41.143Z,81
2024-03-29T23:42:28.513Z,81.4
2024-03-29T23:45:16.016Z,81.7
2024-03-29T23:48:04.413Z,82
2024-03-29T23:50:52.209Z,81.8
2024-03-29T23:53:40.760Z,82.2
2024-03-29T23:56:28.186Z,82.3
2024-03-29T23:59:15.504Z,82.5
